sensor_id;sensor_type;location;lat;lon;timestamp;P1;durP1;ratioP1;P2;durP2;ratioP2
19255;SDS011;9762;52.490;13.410;2023-03-01T00:01:03;20.00;;;13.13;;
19255;SDS011;9762;52.490;13.410;2023-03-01T00:03:33;17.10;;;12.97;;
19255;SDS011;9762;52.490;13.410;2023-03-01T00:05:59;24.43;;;14.60;;
19255;SDS011;9762;52.490;13.410;2023-03-01T00:08:25;21.17;;;14.63;;
19255;SDS011;9762;52.490;13.410;2023-03-01T00:13:35;21.07;;;13.90;;
19255;SDS011;9762;52.490;13.410;2023-03-01T00:16:02;22.00;;;16.03;;
19255;SDS011;9762;52.490;13.410;2023-03-01T00:18:29;22.63;;;15.60;;
19255;SDS011;9762;52.490;13.410;2023-03-01T00:20:55;25.57;;;15.93;;
19255;SDS011;9762;52.490;13.410;2023-03-01T00:23:21;23.60;;;14.43;;
19255;SDS011;9762;52.490;13.410;2023-03-01T00:25:48;22.13;;;15.53;;
19255;SDS011;9762;52.490;13.410;2023-03-01T00:28:14;24.43;;;16.17;;
19255;SDS011;9762;52.490;13.410;2023-03-01T00:30:39;22.90;;;15.40;;
19255;SDS011;9762;52.490;13.410;2023-03-01T00:33:05;22.60;;;15.20;;
19255;SDS011;9762;52.490;13.410;2023-03-01T00:35:34;26.80;;;14.90;;
19255;SDS011;9762;52.490;13.410;2023-03-01T00:38:00;22.17;;;14.60;;
19255;SDS011;9762;52.490;13.410;2023-03-01T00:40:27;22.33;;;15.13;;
19255;SDS011;9762;52.490;13.410;2023-03-01T00:42:53;26.07;;;14.07;;
19255;SDS011;9762;52.490;13.410;2023-03-01T00:45:19;22.57;;;14.67;;
19255;SDS011;9762;52.490;13.410;2023-03-01T00:47:44;21.30;;;13.83;;
19255;SDS011;9762;52.490;13.410;2023-03-01T00:50:10;18.70;;;13.53;;
19255;SDS011;9762;52.490;13.410;2023-03-01T00:52:36;21.37;;;13.80;;
19255;SDS011;9762;52.490;13.410;2023-03-01T00:55:02;25.40;;;13.70;;
19255;SDS011;9762;52.490;13.410;2023-03-01T00:57:29;19.90;;;13.83;;
19255;SDS011;9762;52.490;13.410;2023-03-01T00:59:55;18.87;;;13.43;;
19255;SDS011;9762;52.490;13.410;2023-03-01T01:02:20;18.17;;;12.90;;
19255;SDS011;9762;52.490;13.410;2023-03-01T01:04:46;20.13;;;12.63;;
19255;SDS011;9762;52.490;13.410;2023-03-01T01:07:12;13.90;;;10.63;;
19255;SDS011;9762;52.490;13.410;2023-03-01T01:09:38;17.80;;;11.87;;
19255;SDS011;9762;52.490;13.410;2023-03-01T01:12:04;20.70;;;12.07;;
19255;SDS011;9762;52.490;13.410;2023-03-01T01:14:30;17.73;;;11.27;;
19255;SDS011;9762;52.490;13.410;2023-03-01T01:16:55;14.83;;;11.27;;
19255;SDS011;9762;52.490;13.410;2023-03-01T01:19:21;16.03;;;12.03;;
19255;SDS011;9762;52.490;13.410;2023-03-01T01:21:47;21.00;;;11.47;;
19255;SDS011;9762;52.490;13.410;2023-03-01T01:24:13;17.70;;;12.03;;
19255;SDS011;9762;52.490;13.410;2023-03-01T01:26:40;14.40;;;10.97;;
19255;SDS011;9762;52.490;13.410;2023-03-01T01:29:06;16.10;;;11.57;;
19255;SDS011;9762;52.490;13.410;2023-03-01T01:31:32;16.80;;;11.20;;
19255;SDS011;9762;52.490;13.410;2023-03-01T01:33:59;15.60;;;11.00;;
19255;SDS011;9762;52.490;13.410;2023-03-01T01:36:26;17.73;;;11.30;;
19255;SDS011;9762;52.490;13.410;2023-03-01T01:38:52;23.17;;;12.10;;
19255;SDS011;9762;52.490;13.410;2023-03-01T01:41:18;16.80;;;11.10;;
19255;SDS011;9762;52.490;13.410;2023-03-01T01:43:48;19.07;;;12.17;;
19255;SDS011;9762;52.490;13.410;2023-03-01T01:46:35;16.33;;;11.00;;
19255;SDS011;9762;52.490;13.410;2023-03-01T01:49:17;20.17;;;12.50;;
19255;SDS011;9762;52.490;13.410;2023-03-01T01:51:49;24.40;;;13.13;;
19255;SDS011;9762;52.490;13.410;2023-03-01T01:54:25;21.03;;;13.50;;
19255;SDS011;9762;52.490;13.410;2023-03-01T01:56:56;22.87;;;13.43;;
19255;SDS011;9762;52.490;13.410;2023-03-01T01:59:27;18.10;;;12.23;;
19255;SDS011;9762;52.490;13.410;2023-03-01T02:01:55;21.63;;;12.40;;
19255;SDS011;9762;52.490;13.410;2023-03-01T02:04:24;21.00;;;13.00;;
19255;SDS011;9762;52.490;13.410;2023-03-01T02:09:34;25.37;;;13.97;;
19255;SDS011;9762;52.490;13.410;2023-03-01T02:12:01;18.90;;;13.40;;
19255;SDS011;9762;52.490;13.410;2023-03-01T02:14:28;19.33;;;12.97;;
19255;SDS011;9762;52.490;13.410;2023-03-01T02:16:53;17.93;;;13.03;;
19255;SDS011;9762;52.490;13.410;2023-03-01T02:19:40;17.80;;;11.90;;
19255;SDS011;9762;52.490;13.410;2023-03-01T02:22:25;14.83;;;11.87;;
19255;SDS011;9762;52.490;13.410;2023-03-01T02:28:31;16.53;;;12.20;;
19255;SDS011;9762;52.490;13.410;2023-03-01T02:30:40;14.83;;;11.00;;
19255;SDS011;9762;52.490;13.410;2023-03-01T02:33:27;17.70;;;11.70;;
19255;SDS011;9762;52.490;13.410;2023-03-01T02:35:53;17.50;;;12.67;;
19255;SDS011;9762;52.490;13.410;2023-03-01T02:38:20;20.47;;;11.73;;
19255;SDS011;9762;52.490;13.410;2023-03-01T02:40:47;20.80;;;12.70;;
19255;SDS011;9762;52.490;13.410;2023-03-01T02:43:16;17.60;;;12.03;;
19255;SDS011;9762;52.490;13.410;2023-03-01T02:45:51;18.43;;;12.67;;
19255;SDS011;9762;52.490;13.410;2023-03-01T02:48:18;15.47;;;11.60;;
19255;SDS011;9762;52.490;13.410;2023-03-01T02:53:32;18.00;;;11.97;;
19255;SDS011;9762;52.490;13.410;2023-03-01T02:56:06;14.07;;;10.80;;
19255;SDS011;9762;52.490;13.410;2023-03-01T02:58:38;16.50;;;11.53;;
19255;SDS011;9762;52.490;13.410;2023-03-01T03:01:10;17.63;;;11.03;;
19255;SDS011;9762;52.490;13.410;2023-03-01T03:03:36;17.50;;;11.10;;
19255;SDS011;9762;52.490;13.410;2023-03-01T03:06:01;14.47;;;11.60;;
19255;SDS011;9762;52.490;13.410;2023-03-01T03:08:27;17.47;;;10.97;;
19255;SDS011;9762;52.490;13.410;2023-03-01T03:10:52;17.43;;;11.53;;
19255;SDS011;9762;52.490;13.410;2023-03-01T03:13:18;19.00;;;11.87;;
19255;SDS011;9762;52.490;13.410;2023-03-01T03:15:44;18.60;;;11.40;;
19255;SDS011;9762;52.490;13.410;2023-03-01T03:18:13;17.23;;;10.97;;
19255;SDS011;9762;52.490;13.410;2023-03-01T03:20:41;15.83;;;11.87;;
19255;SDS011;9762;52.490;13.410;2023-03-01T03:23:08;13.50;;;11.03;;
19255;SDS011;9762;52.490;13.410;2023-03-01T03:25:34;14.40;;;11.37;;
19255;SDS011;9762;52.490;13.410;2023-03-01T03:28:02;14.57;;;11.27;;
19255;SDS011;9762;52.490;13.410;2023-03-01T03:30:34;13.87;;;10.97;;
19255;SDS011;9762;52.490;13.410;2023-03-01T03:33:04;14.10;;;11.80;;
19255;SDS011;9762;52.490;13.410;2023-03-01T03:35:34;15.70;;;10.83;;
19255;SDS011;9762;52.490;13.410;2023-03-01T03:38:05;18.67;;;11.23;;
19255;SDS011;9762;52.490;13.410;2023-03-01T03:40:40;15.67;;;10.93;;
19255;SDS011;9762;52.490;13.410;2023-03-01T03:43:09;14.37;;;10.80;;
19255;SDS011;9762;52.490;13.410;2023-03-01T03:45:37;17.73;;;11.60;;
19255;SDS011;9762;52.490;13.410;2023-03-01T03:48:04;15.23;;;9.93;;
19255;SDS011;9762;52.490;13.410;2023-03-01T03:50:31;18.20;;;11.87;;
19255;SDS011;9762;52.490;13.410;2023-03-01T03:52:57;17.60;;;11.00;;
19255;SDS011;9762;52.490;13.410;2023-03-01T03:55:25;15.73;;;11.33;;
19255;SDS011;9762;52.490;13.410;2023-03-01T03:57:55;18.60;;;12.37;;
19255;SDS011;9762;52.490;13.410;2023-03-01T04:00:25;20.90;;;11.87;;
19255;SDS011;9762;52.490;13.410;2023-03-01T04:02:51;18.87;;;13.63;;
19255;SDS011;9762;52.490;13.410;2023-03-01T04:05:21;19.73;;;13.40;;
19255;SDS011;9762;52.490;13.410;2023-03-01T04:07:47;24.20;;;14.37;;
19255;SDS011;9762;52.490;13.410;2023-03-01T04:10:16;20.20;;;13.93;;
19255;SDS011;9762;52.490;13.410;2023-03-01T04:12:43;23.10;;;14.43;;
19255;SDS011;9762;52.490;13.410;2023-03-01T04:15:09;24.27;;;13.83;;
19255;SDS011;9762;52.490;13.410;2023-03-01T04:17:41;24.50;;;14.67;;
19255;SDS011;9762;52.490;13.410;2023-03-01T04:20:09;20.47;;;13.50;;
19255;SDS011;9762;52.490;13.410;2023-03-01T04:22:42;22.33;;;14.07;;
19255;SDS011;9762;52.490;13.410;2023-03-01T04:25:08;20.37;;;14.10;;
19255;SDS011;9762;52.490;13.410;2023-03-01T04:27:34;18.93;;;12.67;;
19255;SDS011;9762;52.490;13.410;2023-03-01T04:30:01;23.17;;;13.83;;
19255;SDS011;9762;52.490;13.410;2023-03-01T04:32:27;20.97;;;14.53;;
19255;SDS011;9762;52.490;13.410;2023-03-01T04:34:53;22.80;;;14.07;;
19255;SDS011;9762;52.490;13.410;2023-03-01T04:37:18;20.37;;;14.00;;
19255;SDS011;9762;52.490;13.410;2023-03-01T04:39:44;22.10;;;15.30;;
19255;SDS011;9762;52.490;13.410;2023-03-01T04:42:13;24.37;;;14.47;;
19255;SDS011;9762;52.490;13.410;2023-03-01T04:44:39;22.20;;;14.50;;
19255;SDS011;9762;52.490;13.410;2023-03-01T04:47:05;20.00;;;14.10;;
19255;SDS011;9762;52.490;13.410;2023-03-01T04:49:31;19.77;;;14.10;;
19255;SDS011;9762;52.490;13.410;2023-03-01T04:51:57;23.50;;;14.63;;
19255;SDS011;9762;52.490;13.410;2023-03-01T04:54:32;18.13;;;14.50;;
19255;SDS011;9762;52.490;13.410;2023-03-01T04:56:59;20.77;;;14.30;;
19255;SDS011;9762;52.490;13.410;2023-03-01T04:59:25;18.87;;;14.53;;
19255;SDS011;9762;52.490;13.410;2023-03-01T05:01:51;22.30;;;14.40;;
19255;SDS011;9762;52.490;13.410;2023-03-01T05:04:20;22.23;;;14.43;;
19255;SDS011;9762;52.490;13.410;2023-03-01T05:06:47;19.20;;;14.20;;
19255;SDS011;9762;52.490;13.410;2023-03-01T05:09:12;21.03;;;13.73;;
19255;SDS011;9762;52.490;13.410;2023-03-01T05:11:38;20.13;;;14.80;;
19255;SDS011;9762;52.490;13.410;2023-03-01T05:14:07;23.53;;;15.13;;
19255;SDS011;9762;52.490;13.410;2023-03-01T05:16:33;27.47;;;14.23;;
19255;SDS011;9762;52.490;13.410;2023-03-01T05:19:01;22.73;;;15.03;;
19255;SDS011;9762;52.490;13.410;2023-03-01T05:21:36;29.20;;;16.57;;
19255;SDS011;9762;52.490;13.410;2023-03-01T05:24:22;22.80;;;15.37;;
19255;SDS011;9762;52.490;13.410;2023-03-01T05:26:48;21.57;;;15.23;;
19255;SDS011;9762;52.490;13.410;2023-03-01T05:29:16;25.30;;;14.40;;
19255;SDS011;9762;52.490;13.410;2023-03-01T05:31:44;22.47;;;15.17;;
19255;SDS011;9762;52.490;13.410;2023-03-01T05:34:09;25.27;;;15.00;;
19255;SDS011;9762;52.490;13.410;2023-03-01T05:36:37;24.00;;;14.90;;
19255;SDS011;9762;52.490;13.410;2023-03-01T05:39:03;21.93;;;14.17;;
19255;SDS011;9762;52.490;13.410;2023-03-01T05:41:29;22.93;;;14.03;;
19255;SDS011;9762;52.490;13.410;2023-03-01T05:43:55;22.43;;;14.70;;
19255;SDS011;9762;52.490;13.410;2023-03-01T05:46:20;23.70;;;14.47;;
19255;SDS011;9762;52.490;13.410;2023-03-01T05:48:48;22.57;;;14.13;;
19255;SDS011;9762;52.490;13.410;2023-03-01T05:51:13;23.17;;;15.37;;
19255;SDS011;9762;52.490;13.410;2023-03-01T05:53:39;24.97;;;15.07;;
19255;SDS011;9762;52.490;13.410;2023-03-01T05:56:05;23.73;;;15.17;;
19255;SDS011;9762;52.490;13.410;2023-03-01T05:58:31;25.73;;;15.30;;
19255;SDS011;9762;52.490;13.410;2023-03-01T06:00:57;23.03;;;16.07;;
19255;SDS011;9762;52.490;13.410;2023-03-01T06:03:22;23.87;;;15.47;;
19255;SDS011;9762;52.490;13.410;2023-03-01T06:05:48;19.73;;;15.37;;
19255;SDS011;9762;52.490;13.410;2023-03-01T06:08:14;25.30;;;14.73;;
19255;SDS011;9762;52.490;13.410;2023-03-01T06:10:39;23.23;;;14.20;;
19255;SDS011;9762;52.490;13.410;2023-03-01T06:13:05;24.53;;;14.53;;
19255;SDS011;9762;52.490;13.410;2023-03-01T06:15:31;22.80;;;14.60;;
19255;SDS011;9762;52.490;13.410;2023-03-01T06:17:57;20.53;;;14.17;;
19255;SDS011;9762;52.490;13.410;2023-03-01T06:20:23;20.37;;;14.30;;
19255;SDS011;9762;52.490;13.410;2023-03-01T06:22:50;53.50;;;33.53;;
19255;SDS011;9762;52.490;13.410;2023-03-01T06:25:17;44.10;;;26.10;;
19255;SDS011;9762;52.490;13.410;2023-03-01T06:27:45;23.07;;;16.83;;
19255;SDS011;9762;52.490;13.410;2023-03-01T06:30:12;21.90;;;15.53;;
19255;SDS011;9762;52.490;13.410;2023-03-01T06:32:40;22.90;;;15.53;;
19255;SDS011;9762;52.490;13.410;2023-03-01T06:35:07;32.83;;;16.13;;
19255;SDS011;9762;52.490;13.410;2023-03-01T06:37:33;23.80;;;15.03;;
19255;SDS011;9762;52.490;13.410;2023-03-01T06:40:00;19.53;;;14.40;;
19255;SDS011;9762;52.490;13.410;2023-03-01T06:42:31;51.63;;;30.97;;
19255;SDS011;9762;52.490;13.410;2023-03-01T06:44:57;41.53;;;26.33;;
19255;SDS011;9762;52.490;13.410;2023-03-01T06:47:23;25.27;;;15.90;;
19255;SDS011;9762;52.490;13.410;2023-03-01T06:49:48;23.73;;;14.73;;
19255;SDS011;9762;52.490;13.410;2023-03-01T06:52:14;18.50;;;13.90;;
19255;SDS011;9762;52.490;13.410;2023-03-01T06:54:39;22.23;;;14.67;;
19255;SDS011;9762;52.490;13.410;2023-03-01T06:57:05;25.07;;;16.13;;
19255;SDS011;9762;52.490;13.410;2023-03-01T06:59:30;28.20;;;14.90;;
19255;SDS011;9762;52.490;13.410;2023-03-01T07:01:56;22.33;;;15.60;;
19255;SDS011;9762;52.490;13.410;2023-03-01T07:04:22;28.60;;;16.80;;
19255;SDS011;9762;52.490;13.410;2023-03-01T07:06:47;33.60;;;21.83;;
19255;SDS011;9762;52.490;13.410;2023-03-01T07:09:19;53.07;;;32.73;;
19255;SDS011;9762;52.490;13.410;2023-03-01T07:11:47;58.33;;;25.47;;
19255;SDS011;9762;52.490;13.410;2023-03-01T07:14:12;51.43;;;24.07;;
19255;SDS011;9762;52.490;13.410;2023-03-01T07:16:38;48.10;;;24.23;;
19255;SDS011;9762;52.490;13.410;2023-03-01T07:19:03;38.67;;;23.73;;
19255;SDS011;9762;52.490;13.410;2023-03-01T07:21:30;43.57;;;28.27;;
19255;SDS011;9762;52.490;13.410;2023-03-01T07:23:56;38.40;;;23.53;;
19255;SDS011;9762;52.490;13.410;2023-03-01T07:26:21;37.47;;;21.77;;
19255;SDS011;9762;52.490;13.410;2023-03-01T07:28:47;34.10;;;20.77;;
19255;SDS011;9762;52.490;13.410;2023-03-01T07:31:12;29.97;;;20.53;;
19255;SDS011;9762;52.490;13.410;2023-03-01T07:33:38;32.20;;;20.23;;
19255;SDS011;9762;52.490;13.410;2023-03-01T07:36:04;39.23;;;24.07;;
19255;SDS011;9762;52.490;13.410;2023-03-01T07:38:31;41.10;;;25.63;;
19255;SDS011;9762;52.490;13.410;2023-03-01T07:40:57;38.07;;;22.60;;
19255;SDS011;9762;52.490;13.410;2023-03-01T07:43:28;33.80;;;20.27;;
19255;SDS011;9762;52.490;13.410;2023-03-01T07:45:54;35.20;;;19.53;;
19255;SDS011;9762;52.490;13.410;2023-03-01T07:48:23;32.67;;;18.33;;
19255;SDS011;9762;52.490;13.410;2023-03-01T07:50:49;33.83;;;18.40;;
19255;SDS011;9762;52.490;13.410;2023-03-01T07:53:14;25.40;;;17.10;;
19255;SDS011;9762;52.490;13.410;2023-03-01T07:55:40;27.07;;;18.53;;
19255;SDS011;9762;52.490;13.410;2023-03-01T07:58:05;28.23;;;17.57;;
19255;SDS011;9762;52.490;13.410;2023-03-01T08:00:31;27.33;;;17.17;;
19255;SDS011;9762;52.490;13.410;2023-03-01T08:03:00;25.13;;;16.93;;
19255;SDS011;9762;52.490;13.410;2023-03-01T08:05:26;31.13;;;17.30;;
19255;SDS011;9762;52.490;13.410;2023-03-01T08:07:52;23.47;;;16.63;;
19255;SDS011;9762;52.490;13.410;2023-03-01T08:10:19;23.07;;;15.73;;
19255;SDS011;9762;52.490;13.410;2023-03-01T08:12:45;80.67;;;49.70;;
19255;SDS011;9762;52.490;13.410;2023-03-01T08:15:11;28.27;;;17.77;;
19255;SDS011;9762;52.490;13.410;2023-03-01T08:17:36;26.63;;;16.30;;
19255;SDS011;9762;52.490;13.410;2023-03-01T08:20:02;23.47;;;16.20;;
19255;SDS011;9762;52.490;13.410;2023-03-01T08:22:31;22.73;;;15.23;;
19255;SDS011;9762;52.490;13.410;2023-03-01T08:24:56;22.67;;;15.60;;
19255;SDS011;9762;52.490;13.410;2023-03-01T08:27:22;21.40;;;16.07;;
19255;SDS011;9762;52.490;13.410;2023-03-01T08:29:47;21.70;;;14.47;;
19255;SDS011;9762;52.490;13.410;2023-03-01T08:32:13;21.90;;;13.80;;
19255;SDS011;9762;52.490;13.410;2023-03-01T08:34:39;19.57;;;13.57;;
19255;SDS011;9762;52.490;13.410;2023-03-01T08:37:04;19.67;;;13.07;;
19255;SDS011;9762;52.490;13.410;2023-03-01T08:39:30;23.37;;;14.20;;
19255;SDS011;9762;52.490;13.410;2023-03-01T08:41:56;23.63;;;13.63;;
19255;SDS011;9762;52.490;13.410;2023-03-01T08:44:22;21.80;;;13.27;;
19255;SDS011;9762;52.490;13.410;2023-03-01T08:46:47;17.27;;;11.33;;
19255;SDS011;9762;52.490;13.410;2023-03-01T08:49:15;15.07;;;11.07;;
19255;SDS011;9762;52.490;13.410;2023-03-01T08:51:42;15.90;;;11.77;;
19255;SDS011;9762;52.490;13.410;2023-03-01T08:54:12;14.73;;;11.00;;
19255;SDS011;9762;52.490;13.410;2023-03-01T08:56:40;19.90;;;11.80;;
19255;SDS011;9762;52.490;13.410;2023-03-01T08:59:05;32.10;;;18.70;;
19255;SDS011;9762;52.490;13.410;2023-03-01T09:01:31;27.00;;;11.80;;
19255;SDS011;9762;52.490;13.410;2023-03-01T09:03:57;18.67;;;8.70;;
19255;SDS011;9762;52.490;13.410;2023-03-01T09:06:23;15.30;;;9.97;;
19255;SDS011;9762;52.490;13.410;2023-03-01T09:08:49;14.20;;;8.60;;
19255;SDS011;9762;52.490;13.410;2023-03-01T09:11:16;12.73;;;7.87;;
19255;SDS011;9762;52.490;13.410;2023-03-01T09:13:44;10.57;;;7.30;;
19255;SDS011;9762;52.490;13.410;2023-03-01T09:16:11;12.67;;;7.50;;
19255;SDS011;9762;52.490;13.410;2023-03-01T09:18:38;12.53;;;7.83;;
19255;SDS011;9762;52.490;13.410;2023-03-01T09:21:09;9.37;;;7.33;;
19255;SDS011;9762;52.490;13.410;2023-03-01T09:23:36;8.00;;;6.63;;
19255;SDS011;9762;52.490;13.410;2023-03-01T09:26:03;11.70;;;6.73;;
19255;SDS011;9762;52.490;13.410;2023-03-01T09:28:34;12.07;;;7.00;;
19255;SDS011;9762;52.490;13.410;2023-03-01T09:31:01;13.33;;;7.23;;
19255;SDS011;9762;52.490;13.410;2023-03-01T09:33:28;9.93;;;6.53;;
19255;SDS011;9762;52.490;13.410;2023-03-01T09:35:56;7.80;;;6.47;;
19255;SDS011;9762;52.490;13.410;2023-03-01T09:38:25;9.50;;;7.37;;
19255;SDS011;9762;52.490;13.410;2023-03-01T09:40:51;8.63;;;6.87;;
19255;SDS011;9762;52.490;13.410;2023-03-01T09:43:32;9.33;;;6.90;;
19255;SDS011;9762;52.490;13.410;2023-03-01T09:46:10;9.77;;;6.90;;
19255;SDS011;9762;52.490;13.410;2023-03-01T09:48:42;11.67;;;7.33;;
19255;SDS011;9762;52.490;13.410;2023-03-01T09:51:18;11.53;;;7.47;;
19255;SDS011;9762;52.490;13.410;2023-03-01T09:53:49;24.23;;;14.47;;
19255;SDS011;9762;52.490;13.410;2023-03-01T09:56:35;20.77;;;9.20;;
19255;SDS011;9762;52.490;13.410;2023-03-01T10:04:48;10.97;;;4.73;;
19255;SDS011;9762;52.490;13.410;2023-03-01T10:10:07;14.20;;;6.27;;
19255;SDS011;9762;52.490;13.410;2023-03-01T10:12:37;11.77;;;5.60;;
19255;SDS011;9762;52.490;13.410;2023-03-01T10:15:19;8.47;;;5.17;;
19255;SDS011;9762;52.490;13.410;2023-03-01T10:17:58;10.37;;;5.13;;
19255;SDS011;9762;52.490;13.410;2023-03-01T10:23:29;8.90;;;5.73;;
19255;SDS011;9762;52.490;13.410;2023-03-01T10:34:26;8.33;;;6.67;;
19255;SDS011;9762;52.490;13.410;2023-03-01T10:36:53;8.40;;;6.07;;
19255;SDS011;9762;52.490;13.410;2023-03-01T10:39:34;6.77;;;5.47;;
19255;SDS011;9762;52.490;13.410;2023-03-01T10:42:04;7.00;;;4.50;;
19255;SDS011;9762;52.490;13.410;2023-03-01T10:44:48;6.83;;;5.53;;
19255;SDS011;9762;52.490;13.410;2023-03-01T10:47:16;10.10;;;5.27;;
19255;SDS011;9762;52.490;13.410;2023-03-01T10:49:54;5.93;;;4.50;;
19255;SDS011;9762;52.490;13.410;2023-03-01T10:52:21;6.13;;;5.10;;
19255;SDS011;9762;52.490;13.410;2023-03-01T10:54:56;13.90;;;5.37;;
19255;SDS011;9762;52.490;13.410;2023-03-01T10:57:42;5.27;;;4.63;;
19255;SDS011;9762;52.490;13.410;2023-03-01T11:00:17;6.90;;;4.97;;
19255;SDS011;9762;52.490;13.410;2023-03-01T11:02:46;7.23;;;4.93;;
19255;SDS011;9762;52.490;13.410;2023-03-01T11:10:18;5.50;;;4.90;;
19255;SDS011;9762;52.490;13.410;2023-03-01T11:13:08;9.20;;;4.97;;
19255;SDS011;9762;52.490;13.410;2023-03-01T11:15:42;6.00;;;4.83;;
19255;SDS011;9762;52.490;13.410;2023-03-01T11:18:23;7.27;;;5.03;;
19255;SDS011;9762;52.490;13.410;2023-03-01T11:20:49;5.23;;;4.40;;
19255;SDS011;9762;52.490;13.410;2023-03-01T11:23:18;4.40;;;4.00;;
19255;SDS011;9762;52.490;13.410;2023-03-01T11:25:53;6.67;;;4.30;;
19255;SDS011;9762;52.490;13.410;2023-03-01T11:28:21;5.40;;;4.53;;
19255;SDS011;9762;52.490;13.410;2023-03-01T11:31:00;5.83;;;4.70;;
19255;SDS011;9762;52.490;13.410;2023-03-01T11:36:46;5.20;;;4.20;;
19255;SDS011;9762;52.490;13.410;2023-03-01T11:41:52;4.27;;;3.87;;
19255;SDS011;9762;52.490;13.410;2023-03-01T11:44:28;4.17;;;3.70;;
19255;SDS011;9762;52.490;13.410;2023-03-01T12:03:23;4.00;;;3.70;;
19255;SDS011;9762;52.490;13.410;2023-03-01T12:08:42;3.37;;;3.07;;
19255;SDS011;9762;52.490;13.410;2023-03-01T12:16:56;4.30;;;2.80;;
19255;SDS011;9762;52.490;13.410;2023-03-01T12:24:54;3.47;;;3.10;;
19255;SDS011;9762;52.490;13.410;2023-03-01T12:38:50;6.77;;;3.10;;
19255;SDS011;9762;52.490;13.410;2023-03-01T12:43:47;5.27;;;3.20;;
19255;SDS011;9762;52.490;13.410;2023-03-01T12:49:12;3.00;;;2.53;;
19255;SDS011;9762;52.490;13.410;2023-03-01T12:51:42;5.03;;;3.23;;
19255;SDS011;9762;52.490;13.410;2023-03-01T12:54:15;6.57;;;3.23;;
19255;SDS011;9762;52.490;13.410;2023-03-01T12:56:45;7.83;;;4.07;;
19255;SDS011;9762;52.490;13.410;2023-03-01T13:02:23;4.10;;;3.70;;
19255;SDS011;9762;52.490;13.410;2023-03-01T13:10:43;12.47;;;4.63;;
19255;SDS011;9762;52.490;13.410;2023-03-01T13:13:48;5.23;;;4.07;;
19255;SDS011;9762;52.490;13.410;2023-03-01T13:16:19;5.73;;;3.53;;
19255;SDS011;9762;52.490;13.410;2023-03-01T13:22:25;4.53;;;3.07;;
19255;SDS011;9762;52.490;13.410;2023-03-01T13:25:00;4.27;;;3.87;;
19255;SDS011;9762;52.490;13.410;2023-03-01T13:27:39;5.17;;;2.70;;
19255;SDS011;9762;52.490;13.410;2023-03-01T13:33:33;3.73;;;3.43;;
19255;SDS011;9762;52.490;13.410;2023-03-01T13:36:03;3.17;;;2.90;;
19255;SDS011;9762;52.490;13.410;2023-03-01T13:44:24;14.27;;;10.37;;
19255;SDS011;9762;52.490;13.410;2023-03-01T13:47:03;9.80;;;3.90;;
19255;SDS011;9762;52.490;13.410;2023-03-01T13:49:57;2.97;;;2.77;;
19255;SDS011;9762;52.490;13.410;2023-03-01T13:52:39;2.93;;;2.73;;
19255;SDS011;9762;52.490;13.410;2023-03-01T13:55:21;3.40;;;2.70;;
19255;SDS011;9762;52.490;13.410;2023-03-01T13:58:02;2.73;;;2.60;;
19255;SDS011;9762;52.490;13.410;2023-03-01T14:00:39;3.90;;;2.60;;
19255;SDS011;9762;52.490;13.410;2023-03-01T14:03:25;3.23;;;2.93;;
19255;SDS011;9762;52.490;13.410;2023-03-01T14:08:34;3.60;;;3.10;;
19255;SDS011;9762;52.490;13.410;2023-03-01T14:13:51;3.37;;;3.00;;
19255;SDS011;9762;52.490;13.410;2023-03-01T14:17:10;3.47;;;2.70;;
19255;SDS011;9762;52.490;13.410;2023-03-01T14:19:25;4.17;;;3.00;;
19255;SDS011;9762;52.490;13.410;2023-03-01T14:24:57;3.80;;;3.03;;
19255;SDS011;9762;52.490;13.410;2023-03-01T14:27:43;6.87;;;3.10;;
19255;SDS011;9762;52.490;13.410;2023-03-01T14:32:53;5.77;;;2.70;;
19255;SDS011;9762;52.490;13.410;2023-03-01T14:35:31;3.47;;;3.13;;
19255;SDS011;9762;52.490;13.410;2023-03-01T14:38:04;31.30;;;19.40;;
19255;SDS011;9762;52.490;13.410;2023-03-01T14:40:31;6.77;;;5.07;;
19255;SDS011;9762;52.490;13.410;2023-03-01T14:43:00;3.60;;;3.30;;
19255;SDS011;9762;52.490;13.410;2023-03-01T14:45:33;4.70;;;3.00;;
19255;SDS011;9762;52.490;13.410;2023-03-01T14:48:00;2.40;;;2.30;;
19255;SDS011;9762;52.490;13.410;2023-03-01T14:50:42;3.40;;;2.67;;
19255;SDS011;9762;52.490;13.410;2023-03-01T14:53:28;3.27;;;2.50;;
19255;SDS011;9762;52.490;13.410;2023-03-01T14:56:15;4.53;;;2.77;;
19255;SDS011;9762;52.490;13.410;2023-03-01T14:58:44;2.90;;;2.70;;
19255;SDS011;9762;52.490;13.410;2023-03-01T15:01:15;3.13;;;2.63;;
19255;SDS011;9762;52.490;13.410;2023-03-01T15:03:44;3.03;;;2.43;;
19255;SDS011;9762;52.490;13.410;2023-03-01T15:06:14;2.77;;;2.53;;
19255;SDS011;9762;52.490;13.410;2023-03-01T15:08:50;3.47;;;3.00;;
19255;SDS011;9762;52.490;13.410;2023-03-01T15:11:23;2.53;;;2.37;;
19255;SDS011;9762;52.490;13.410;2023-03-01T15:13:53;2.87;;;2.63;;
19255;SDS011;9762;52.490;13.410;2023-03-01T15:16:22;3.63;;;2.20;;
19255;SDS011;9762;52.490;13.410;2023-03-01T15:19:04;2.63;;;2.43;;
19255;SDS011;9762;52.490;13.410;2023-03-01T15:21:44;3.07;;;2.73;;
19255;SDS011;9762;52.490;13.410;2023-03-01T15:26:46;2.30;;;2.20;;
19255;SDS011;9762;52.490;13.410;2023-03-01T15:29:19;2.67;;;2.47;;
19255;SDS011;9762;52.490;13.410;2023-03-01T15:32:05;5.00;;;3.17;;
19255;SDS011;9762;52.490;13.410;2023-03-01T15:34:49;4.17;;;2.87;;
19255;SDS011;9762;52.490;13.410;2023-03-01T15:40:24;5.20;;;4.13;;
19255;SDS011;9762;52.490;13.410;2023-03-01T15:42:56;7.43;;;3.53;;
19255;SDS011;9762;52.490;13.410;2023-03-01T15:45:36;3.30;;;3.00;;
19255;SDS011;9762;52.490;13.410;2023-03-01T15:48:14;3.50;;;3.20;;
19255;SDS011;9762;52.490;13.410;2023-03-01T15:50:53;6.63;;;5.90;;
19255;SDS011;9762;52.490;13.410;2023-03-01T15:53:23;7.50;;;5.73;;
19255;SDS011;9762;52.490;13.410;2023-03-01T15:55:53;7.93;;;6.00;;
19255;SDS011;9762;52.490;13.410;2023-03-01T15:58:19;9.23;;;6.00;;
19255;SDS011;9762;52.490;13.410;2023-03-01T16:00:56;6.87;;;5.77;;
19255;SDS011;9762;52.490;13.410;2023-03-01T16:03:24;4.43;;;4.03;;
19255;SDS011;9762;52.490;13.410;2023-03-01T16:05:53;7.10;;;3.83;;
19255;SDS011;9762;52.490;13.410;2023-03-01T16:08:18;4.70;;;3.73;;
19255;SDS011;9762;52.490;13.410;2023-03-01T16:10:47;4.23;;;2.77;;
19255;SDS011;9762;52.490;13.410;2023-03-01T16:13:17;17.67;;;12.07;;
19255;SDS011;9762;52.490;13.410;2023-03-01T16:15:44;15.43;;;10.77;;
19255;SDS011;9762;52.490;13.410;2023-03-01T16:18:10;8.10;;;6.30;;
19255;SDS011;9762;52.490;13.410;2023-03-01T16:20:39;4.40;;;4.00;;
19255;SDS011;9762;52.490;13.410;2023-03-01T16:23:06;4.83;;;3.53;;
19255;SDS011;9762;52.490;13.410;2023-03-01T16:25:37;4.20;;;3.27;;
19255;SDS011;9762;52.490;13.410;2023-03-01T16:28:05;3.67;;;3.37;;
19255;SDS011;9762;52.490;13.410;2023-03-01T16:30:40;4.97;;;3.20;;
19255;SDS011;9762;52.490;13.410;2023-03-01T16:33:10;6.37;;;3.33;;
19255;SDS011;9762;52.490;13.410;2023-03-01T16:35:38;5.30;;;3.00;;
19255;SDS011;9762;52.490;13.410;2023-03-01T16:38:08;6.90;;;3.80;;
19255;SDS011;9762;52.490;13.410;2023-03-01T16:40:36;8.00;;;3.37;;
19255;SDS011;9762;52.490;13.410;2023-03-01T16:43:01;4.03;;;3.47;;
19255;SDS011;9762;52.490;13.410;2023-03-01T16:45:34;6.33;;;3.80;;
19255;SDS011;9762;52.490;13.410;2023-03-01T16:48:08;5.77;;;4.17;;
19255;SDS011;9762;52.490;13.410;2023-03-01T16:50:42;7.57;;;4.90;;
19255;SDS011;9762;52.490;13.410;2023-03-01T16:53:09;7.20;;;4.50;;